Time;durP1;ratioP1;P1;durP2;ratioP2;P2;SDS_P1;SDS_P2;PMS_P1;PMS_P2;Temp;Humidity;BMP_temperature;BMP_pressure;BME280_temperature;BME280_humidity;BME280_pressure;Samples;Min_cycle;Max_cycle;Signal;HPM_P1;HPM_P2
2023/04/27 00:02:12;;;;;;;;;;;15.20;69.80;;;;;;5074808;28;19908;-86
2023/04/27 00:04:37;;;;;;;;;;;15.20;69.80;;;;;;5092854;28;19908;-86
2023/04/27 00:07:04;;;;;;;;;;;15.20;69.90;;;;;;5076813;28;20281;-86
2023/04/27 00:09:30;;;;;;;;;;;15.10;69.80;;;;;;5075625;28;20274;-86
2023/04/27 00:11:55;;;;;;;;;;;15.10;69.80;;;;;;5077102;28;19926;-87
2023/04/27 00:14:21;;;;;;;;;;;15.10;69.80;;;;;;5077885;28;19919;-86
2023/04/27 00:16:47;;;;;;;;;;;15.10;70.00;;;;;;5078783;28;19914;-86
2023/04/27 00:19:14;;;;;;;;;;;15.10;69.90;;;;;;5078175;28;19963;-86
2023/04/27 00:21:39;;;;;;;;;;;15.10;69.90;;;;;;5095397;28;19919;-86
2023/04/27 00:24:05;;;;;;;;;;;15.10;70.00;;;;;;5076303;28;20190;-86
2023/04/27 00:26:31;;;;;;;;;;;15.00;69.90;;;;;;5074043;28;19958;-86
2023/04/27 00:28:56;;;;;;;;;;;15.00;69.90;;;;;;5093671;28;19919;-86
2023/04/27 00:31:22;;;;;;;;;;;15.00;70.00;;;;;;5075621;28;19908;-86
2023/04/27 00:33:47;;;;;;;;;;;15.00;70.00;;;;;;5074778;28;20180;-86
2023/04/27 00:36:13;;;;;;;;;;;15.00;70.00;;;;;;5075634;28;19916;-86
2023/04/27 00:38:39;;;;;;;;;;;15.00;70.10;;;;;;5076895;28;19908;-86
2023/04/27 00:41:05;;;;;;;;;;;14.90;70.00;;;;;;5077199;28;19951;-86
2023/04/27 00:43:31;;;;;;;;;;;14.90;70.00;;;;;;5077797;28;19914;-86
2023/04/27 00:45:58;;;;;;;;;;;14.90;70.20;;;;;;5081388;28;19939;-86
2023/04/27 00:48:24;;;;;;;;;;;14.90;70.10;;;;;;5080337;28;19974;-86
2023/04/27 00:50:50;;;;;;;;;;;14.90;70.10;;;;;;5081993;28;19908;-86
2023/04/27 00:53:15;;;;;;;;;;;14.90;70.10;;;;;;5081708;28;20014;-86
2023/04/27 00:55:41;;;;;;;;;;;14.90;70.10;;;;;;5080667;28;20026;-86
2023/04/27 00:58:07;;;;;;;;;;;14.80;70.10;;;;;;5081692;28;19908;-86
2023/04/27 01:00:34;;;;;;;;;;;14.80;70.10;;;;;;5081432;28;19938;-86
2023/04/27 01:03:02;;;;;;;;;;;14.80;70.10;;;;;;5098663;28;19908;-86
2023/04/27 01:05:29;;;;;;;;;;;14.80;70.10;;;;;;5080681;28;20159;-86
2023/04/27 01:07:54;;;;;;;;;;;14.80;70.20;;;;;;5096430;28;20297;-86
2023/04/27 01:10:20;;;;;;;;;;;14.80;70.20;;;;;;5077317;28;19908;-87
2023/04/27 01:12:45;;;;;;;;;;;14.80;70.20;;;;;;5096120;28;19923;-86
2023/04/27 01:15:11;;;;;;;;;;;14.80;70.20;;;;;;5095328;28;19922;-86
2023/04/27 01:17:37;;;;;;;;;;;14.70;70.10;;;;;;5078643;28;19922;-86
2023/04/27 01:20:05;;;;;;;;;;;14.70;70.20;;;;;;5078955;28;20270;-87
2023/04/27 01:22:31;;;;;;;;;;;14.70;70.10;;;;;;5080076;28;19920;-86
2023/04/27 01:24:56;;;;;;;;;;;14.70;70.20;;;;;;5080437;28;19916;-86
2023/04/27 01:27:22;;;;;;;;;;;14.70;70.20;;;;;;5080016;28;19996;-86
2023/04/27 01:29:48;;;;;;;;;;;14.70;70.10;;;;;;5098014;28;19995;-86
2023/04/27 01:32:13;;;;;;;;;;;14.70;70.20;;;;;;5097866;28;20027;-86
2023/04/27 01:34:39;;;;;;;;;;;14.70;70.10;;;;;;5080259;28;19951;-87
2023/04/27 01:37:05;;;;;;;;;;;14.70;70.20;;;;;;5097581;28;20347;-87
2023/04/27 01:39:31;;;;;;;;;;;14.60;70.10;;;;;;5080945;28;19969;-87
2023/04/27 01:41:56;;;;;;;;;;;14.60;70.00;;;;;;5080618;28;19962;-87
2023/04/27 01:44:22;;;;;;;;;;;14.60;70.10;;;;;;5081565;28;20269;-87
2023/04/27 01:46:48;;;;;;;;;;;14.60;70.00;;;;;;5098297;28;20424;-87
2023/04/27 01:49:14;;;;;;;;;;;14.60;70.10;;;;;;5096061;28;20003;-86
2023/04/27 01:51:39;;;;;;;;;;;14.60;70.10;;;;;;5080360;28;19908;-86
2023/04/27 01:54:05;;;;;;;;;;;14.50;70.10;;;;;;5081281;28;19963;-86
2023/04/27 01:56:31;;;;;;;;;;;14.50;70.10;;;;;;5077517;28;20006;-86
2023/04/27 01:58:56;;;;;;;;;;;14.50;70.10;;;;;;5080632;28;19908;-86
2023/04/27 02:01:22;;;;;;;;;;;14.50;70.10;;;;;;5081024;28;20228;-87
2023/04/27 02:03:48;;;;;;;;;;;14.50;70.20;;;;;;5079795;28;19908;-87
2023/04/27 02:06:13;;;;;;;;;;;14.50;70.20;;;;;;5079019;28;20321;-87
2023/04/27 02:08:38;;;;;;;;;;;14.50;70.20;;;;;;5079759;28;19935;-87
2023/04/27 02:11:04;;;;;;;;;;;14.40;70.10;;;;;;5080241;28;19908;-86
2023/04/27 02:13:30;;;;;;;;;;;14.40;70.00;;;;;;5097352;28;19915;-87
2023/04/27 02:15:55;;;;;;;;;;;14.40;70.00;;;;;;5078953;28;19915;-86
2023/04/27 02:18:21;;;;;;;;;;;14.40;70.00;;;;;;5079439;28;19972;-86
2023/04/27 02:20:46;;;;;;;;;;;14.40;70.00;;;;;;5080329;28;20278;-86
2023/04/27 02:23:12;;;;;;;;;;;14.40;70.00;;;;;;5079325;28;19915;-86
2023/04/27 02:25:37;;;;;;;;;;;14.40;70.00;;;;;;5079379;28;19920;-86
2023/04/27 02:28:03;;;;;;;;;;;14.40;70.00;;;;;;5097616;28;19915;-86
2023/04/27 02:30:29;;;;;;;;;;;14.40;70.00;;;;;;5079637;28;19943;-86
2023/04/27 02:32:56;;;;;;;;;;;14.40;69.90;;;;;;5095581;28;19919;-86
2023/04/27 02:35:21;;;;;;;;;;;14.30;69.80;;;;;;5078240;28;19922;-86
2023/04/27 02:37:47;;;;;;;;;;;14.30;69.90;;;;;;5078984;28;20010;-87
2023/04/27 02:40:13;;;;;;;;;;;14.30;69.90;;;;;;5078910;28;19908;-86
2023/04/27 02:42:38;;;;;;;;;;;14.30;69.90;;;;;;5093596;28;19907;-86
2023/04/27 02:45:05;;;;;;;;;;;14.30;69.80;;;;;;5094486;28;20278;-86
2023/04/27 02:47:31;;;;;;;;;;;14.30;69.80;;;;;;5076459;28;20012;-86
2023/04/27 02:49:57;;;;;;;;;;;14.30;69.80;;;;;;5077172;28;20301;-86
2023/04/27 02:52:22;;;;;;;;;;;14.30;69.80;;;;;;5077297;28;20141;-86
2023/04/27 02:54:48;;;;;;;;;;;14.20;69.80;;;;;;5077715;28;19912;-86
2023/04/27 02:57:13;;;;;;;;;;;14.20;69.90;;;;;;5095860;28;20240;-86
2023/04/27 02:59:39;;;;;;;;;;;14.20;69.80;;;;;;5095436;28;19916;-86
2023/04/27 03:02:05;;;;;;;;;;;14.20;69.70;;;;;;5095918;28;19908;-86
2023/04/27 03:04:30;;;;;;;;;;;14.20;69.70;;;;;;5078914;28;20149;-86
2023/04/27 03:06:56;;;;;;;;;;;14.20;69.70;;;;;;5078363;28;19955;-87
2023/04/27 03:09:21;;;;;;;;;;;14.10;69.70;;;;;;5079000;28;20228;-87
2023/04/27 03:11:47;;;;;;;;;;;14.10;69.70;;;;;;5077245;28;20257;-86
2023/04/27 03:14:12;;;;;;;;;;;14.10;69.70;;;;;;5076211;28;20304;-87
2023/04/27 03:16:38;;;;;;;;;;;14.10;69.60;;;;;;5075856;28;19949;-87
2023/04/27 03:19:04;;;;;;;;;;;14.10;69.60;;;;;;5076084;28;19912;-86
2023/04/27 03:21:30;;;;;;;;;;;14.10;69.60;;;;;;5077195;28;19987;-86
2023/04/27 03:23:56;;;;;;;;;;;14.10;69.60;;;;;;5077458;28;19908;-86
2023/04/27 03:26:21;;;;;;;;;;;14.10;69.50;;;;;;5077226;28;20066;-86
2023/04/27 03:28:47;;;;;;;;;;;14.00;69.50;;;;;;5078805;28;19919;-87
2023/04/27 03:31:13;;;;;;;;;;;14.00;69.40;;;;;;5078534;28;20021;-86
2023/04/27 03:33:39;;;;;;;;;;;14.00;69.40;;;;;;5077643;28;19912;-87
2023/04/27 03:36:05;;;;;;;;;;;14.00;69.40;;;;;;5076912;28;19942;-87
2023/04/27 03:38:31;;;;;;;;;;;14.00;69.30;;;;;;5077715;28;19915;-87
2023/04/27 03:40:57;;;;;;;;;;;14.00;69.40;;;;;;5075782;28;19908;-87
2023/04/27 03:43:22;;;;;;;;;;;14.00;69.30;;;;;;5076467;28;19919;-87
2023/04/27 03:45:48;;;;;;;;;;;14.00;69.30;;;;;;5075006;28;20011;-86
2023/04/27 03:48:16;;;;;;;;;;;14.00;69.30;;;;;;5077392;28;20576;-87
2023/04/27 03:50:42;;;;;;;;;;;13.90;69.30;;;;;;5094528;28;19915;-86
2023/04/27 03:53:07;;;;;;;;;;;13.90;69.30;;;;;;5077759;28;20019;-87
2023/04/27 03:55:33;;;;;;;;;;;13.90;69.30;;;;;;5094376;28;19919;-86
2023/04/27 03:57:59;;;;;;;;;;;13.90;69.20;;;;;;5093900;28;19908;-86
2023/04/27 04:00:25;;;;;;;;;;;13.90;69.20;;;;;;5077489;28;19908;-86
2023/04/27 04:02:51;;;;;;;;;;;13.90;69.10;;;;;;5077789;28;19954;-86
2023/04/27 04:05:16;;;;;;;;;;;13.90;69.10;;;;;;5075294;28;20300;-86
2023/04/27 04:07:42;;;;;;;;;;;13.90;69.10;;;;;;5092612;28;19919;-86
2023/04/27 04:10:08;;;;;;;;;;;13.90;69.00;;;;;;5075771;28;19973;-86
2023/04/27 04:12:34;;;;;;;;;;;13.90;69.00;;;;;;5073652;28;19919;-86
2023/04/27 04:14:59;;;;;;;;;;;13.80;69.00;;;;;;5075006;28;19916;-87
2023/04/27 04:17:25;;;;;;;;;;;13.80;69.00;;;;;;5092864;28;19915;-86
2023/04/27 04:19:51;;;;;;;;;;;13.80;68.90;;;;;;5073001;28;19967;-86
2023/04/27 04:22:16;;;;;;;;;;;13.80;69.00;;;;;;5073587;28;19915;-86
2023/04/27 04:24:42;;;;;;;;;;;13.80;68.80;;;;;;5072863;28;19909;-86
2023/04/27 04:27:08;;;;;;;;;;;13.80;68.80;;;;;;5072451;28;20274;-86
2023/04/27 04:29:33;;;;;;;;;;;13.80;68.70;;;;;;5070875;28;19916;-86
2023/04/27 04:31:59;;;;;;;;;;;13.80;68.70;;;;;;5072446;28;19908;-86
2023/04/27 04:34:25;;;;;;;;;;;13.80;68.70;;;;;;5089755;28;20014;-86
2023/04/27 04:36:50;;;;;;;;;;;13.80;68.60;;;;;;5090064;28;19948;-86
2023/04/27 04:39:20;;;;;;;;;;;13.80;68.50;;;;;;5072222;28;20272;-86
2023/04/27 04:41:45;;;;;;;;;;;13.80;68.40;;;;;;5072370;28;20177;-86
2023/04/27 04:44:11;;;;;;;;;;;13.80;68.40;;;;;;5072975;28;19909;-86
2023/04/27 04:46:37;;;;;;;;;;;13.80;68.40;;;;;;5072486;28;19978;-86
2023/04/27 04:49:03;;;;;;;;;;;13.80;68.40;;;;;;5072692;28;19908;-87
2023/04/27 04:51:28;;;;;;;;;;;13.70;68.50;;;;;;5072482;28;19919;-86
2023/04/27 04:53:54;;;;;;;;;;;13.80;68.50;;;;;;5073588;28;19921;-86
2023/04/27 04:56:20;;;;;;;;;;;13.80;68.50;;;;;;5089107;28;19968;-87
2023/04/27 04:58:45;;;;;;;;;;;13.80;68.60;;;;;;5072720;28;20062;-86
2023/04/27 05:01:11;;;;;;;;;;;13.80;68.80;;;;;;5090526;28;20032;-87
2023/04/27 05:03:36;;;;;;;;;;;13.80;68.90;;;;;;5071300;28;19908;-87
2023/04/27 05:06:02;;;;;;;;;;;13.80;69.00;;;;;;5085164;28;19908;-87
2023/04/27 05:08:27;;;;;;;;;;;13.90;69.10;;;;;;5068391;28;19909;-87
2023/04/27 05:10:53;;;;;;;;;;;13.90;69.00;;;;;;5068617;28;19912;-87
2023/04/27 05:13:19;;;;;;;;;;;14.00;69.10;;;;;;5086194;28;19908;-87
2023/04/27 05:15:45;;;;;;;;;;;14.00;68.90;;;;;;5070568;28;19944;-88
2023/04/27 05:18:10;;;;;;;;;;;14.10;68.90;;;;;;5071293;28;19908;-88
2023/04/27 05:20:36;;;;;;;;;;;14.10;68.70;;;;;;5085776;28;19920;-87
2023/04/27 05:23:02;;;;;;;;;;;14.20;68.60;;;;;;5068220;28;19908;-88
2023/04/27 05:25:31;;;;;;;;;;;14.30;68.40;;;;;;5068735;28;19959;-88
2023/04/27 05:27:57;;;;;;;;;;;14.40;68.20;;;;;;5067901;28;20277;-87
2023/04/27 05:30:22;;;;;;;;;;;14.40;67.80;;;;;;5088133;28;20101;-87
2023/04/27 05:32:48;;;;;;;;;;;14.50;67.50;;;;;;5073412;28;20141;-87
2023/04/27 05:35:13;;;;;;;;;;;14.60;67.20;;;;;;5090508;28;20011;-87
2023/04/27 05:37:39;;;;;;;;;;;14.70;66.60;;;;;;5073243;28;19918;-88
2023/04/27 05:40:07;;;;;;;;;;;14.80;66.20;;;;;;5072409;28;20401;-88
2023/04/27 05:42:33;;;;;;;;;;;14.90;65.70;;;;;;5070556;28;20343;-88
2023/04/27 05:44:59;;;;;;;;;;;14.90;65.20;;;;;;5069194;28;19908;-87
2023/04/27 05:47:24;;;;;;;;;;;15.00;64.40;;;;;;5070650;28;20301;-87
2023/04/27 05:49:51;;;;;;;;;;;15.10;63.90;;;;;;5066263;28;19919;-87
2023/04/27 05:52:17;;;;;;;;;;;15.20;63.40;;;;;;5068042;28;20345;-88
2023/04/27 05:54:46;;;;;;;;;;;15.30;62.90;;;;;;5068468;28;19912;-87
2023/04/27 05:57:12;;;;;;;;;;;15.40;62.30;;;;;;5067426;28;19908;-87
2023/04/27 05:59:37;;;;;;;;;;;15.50;61.90;;;;;;5069034;28;19931;-87
2023/04/27 06:02:03;;;;;;;;;;;15.50;61.40;;;;;;5071944;28;19908;-87
2023/04/27 06:04:29;;;;;;;;;;;15.60;60.90;;;;;;5070878;28;19935;-87
2023/04/27 06:06:55;;;;;;;;;;;15.70;60.40;;;;;;5069431;28;19985;-87
2023/04/27 06:09:20;;;;;;;;;;;15.80;60.00;;;;;;5071542;28;19909;-87
2023/04/27 06:11:46;;;;;;;;;;;15.90;59.70;;;;;;5071124;28;20300;-87
2023/04/27 06:14:12;;;;;;;;;;;16.00;59.40;;;;;;5069993;28;19912;-87
2023/04/27 06:16:39;;;;;;;;;;;16.10;59.20;;;;;;5070327;28;20156;-87
2023/04/27 06:19:05;;;;;;;;;;;16.20;59.00;;;;;;5069440;28;19924;-87
2023/04/27 06:21:31;;;;;;;;;;;16.30;58.80;;;;;;5070790;28;19919;-87
2023/04/27 06:23:56;;;;;;;;;;;16.40;58.50;;;;;;5070093;28;19916;-87
2023/04/27 06:26:22;;;;;;;;;;;16.60;58.20;;;;;;5088629;28;19912;-87
2023/04/27 06:28:48;;;;;;;;;;;16.80;58.00;;;;;;5071407;28;20027;-87
2023/04/27 06:31:14;;;;;;;;;;;17.20;57.60;;;;;;5071134;28;19908;-87
2023/04/27 06:33:40;;;;;;;;;;;17.50;57.10;;;;;;5070081;28;19973;-87
2023/04/27 06:36:05;;;;;;;;;;;17.90;56.40;;;;;;5069805;28;20292;-87
2023/04/27 06:38:31;;;;;;;;;;;18.30;56.30;;;;;;5067993;28;19912;-87
2023/04/27 06:40:56;;;;;;;;;;;18.60;55.10;;;;;;5086118;28;20270;-87
2023/04/27 06:43:22;;;;;;;;;;;19.00;54.40;;;;;;5067473;28;20265;-87
2023/04/27 06:45:48;;;;;;;;;;;19.30;53.90;;;;;;5070393;28;20266;-87
2023/04/27 06:48:13;;;;;;;;;;;19.70;53.30;;;;;;5069644;28;19908;-87
2023/04/27 06:50:39;;;;;;;;;;;20.00;52.70;;;;;;5068825;28;19908;-86
2023/04/27 06:53:04;;;;;;;;;;;20.20;52.10;;;;;;5068090;28;20177;-87
2023/04/27 06:55:30;;;;;;;;;;;20.50;51.80;;;;;;5067622;28;20129;-87
2023/04/27 06:57:56;;;;;;;;;;;20.80;51.20;;;;;;5085574;28;20212;-86
2023/04/27 07:00:21;;;;;;;;;;;21.00;50.80;;;;;;5068240;28;20262;-86
2023/04/27 07:02:47;;;;;;;;;;;21.10;50.70;;;;;;5067153;28;20092;-86
2023/04/27 07:05:13;;;;;;;;;;;21.30;50.60;;;;;;5068439;28;19919;-86
2023/04/27 07:07:38;;;;;;;;;;;21.60;50.20;;;;;;5086546;28;19912;-86
2023/04/27 07:10:04;;;;;;;;;;;21.80;49.70;;;;;;5085598;28;20282;-86
2023/04/27 07:12:30;;;;;;;;;;;22.10;49.20;;;;;;5068049;28;19908;-86
2023/04/27 07:14:56;;;;;;;;;;;22.30;49.00;;;;;;5085302;28;19912;-87
2023/04/27 07:17:21;;;;;;;;;;;22.50;48.90;;;;;;5068329;28;19908;-86
2023/04/27 07:19:47;;;;;;;;;;;22.70;48.00;;;;;;5084880;28;19916;-86
2023/04/27 07:22:14;;;;;;;;;;;22.90;47.60;;;;;;5085726;28;20072;-86
2023/04/27 07:24:40;;;;;;;;;;;23.20;47.30;;;;;;5068411;28;19908;-86
2023/04/27 07:27:07;;;;;;;;;;;23.30;47.00;;;;;;5069216;28;19912;-86
2023/04/27 07:29:32;;;;;;;;;;;23.60;46.80;;;;;;5070467;28;19985;-87
2023/04/27 07:31:58;;;;;;;;;;;23.80;46.40;;;;;;5087552;28;20178;-87
2023/04/27 07:34:23;;;;;;;;;;;24.00;46.20;;;;;;5069483;28;20091;-86
2023/04/27 07:36:52;;;;;;;;;;;24.10;46.00;;;;;;5067260;28;19931;-86
2023/04/27 07:39:18;;;;;;;;;;;24.20;45.80;;;;;;5068613;28;20189;-86
2023/04/27 07:41:43;;;;;;;;;;;24.40;45.60;;;;;;5067910;28;20243;-86
2023/04/27 07:44:11;;;;;;;;;;;24.60;45.30;;;;;;5068525;28;19912;-87
2023/04/27 07:46:37;;;;;;;;;;;24.80;45.10;;;;;;5069343;28;20008;-87
2023/04/27 07:49:03;;;;;;;;;;;25.00;45.20;;;;;;5066770;28;20007;-86
2023/04/27 07:51:28;;;;;;;;;;;25.20;44.60;;;;;;5067919;28;20343;-87
2023/04/27 07:53:54;;;;;;;;;;;25.30;44.30;;;;;;5084507;28;19919;-86
2023/04/27 07:56:20;;;;;;;;;;;25.60;44.10;;;;;;5065520;28;19908;-87
2023/04/27 07:58:46;;;;;;;;;;;25.70;43.90;;;;;;5064280;28;20127;-87
2023/04/27 08:01:11;;;;;;;;;;;25.80;43.60;;;;;;5066198;28;19908;-87
2023/04/27 08:03:37;;;;;;;;;;;26.00;43.50;;;;;;5066601;28;19908;-86
2023/04/27 08:06:03;;;;;;;;;;;26.20;43.30;;;;;;5067813;28;19908;-86
2023/04/27 08:08:29;;;;;;;;;;;26.30;43.00;;;;;;5067882;28;19908;-87
2023/04/27 08:10:54;;;;;;;;;;;26.40;42.80;;;;;;5066467;28;20103;-86
2023/04/27 08:13:20;;;;;;;;;;;26.60;42.60;;;;;;5066869;28;19940;-86
2023/04/27 08:15:46;;;;;;;;;;;26.70;42.40;;;;;;5065646;28;20023;-87
2023/04/27 08:18:11;;;;;;;;;;;26.90;42.20;;;;;;5085177;28;19909;-87
2023/04/27 08:20:37;;;;;;;;;;;27.00;42.10;;;;;;5066380;28;19931;-86
2023/04/27 08:23:03;;;;;;;;;;;27.10;41.90;;;;;;5062791;28;19947;-87
2023/04/27 08:25:28;;;;;;;;;;;27.30;41.70;;;;;;5061057;28;19923;-86
2023/04/27 08:27:54;;;;;;;;;;;27.40;41.60;;;;;;5060640;28;19952;-87
2023/04/27 08:30:20;;;;;;;;;;;27.40;41.50;;;;;;5060514;28;20235;-86
2023/04/27 08:32:46;;;;;;;;;;;27.60;41.40;;;;;;5065788;28;20238;-87
2023/04/27 08:35:13;;;;;;;;;;;27.60;41.20;;;;;;5064011;28;20142;-87
2023/04/27 08:37:39;;;;;;;;;;;27.70;41.00;;;;;;5069489;28;19940;-86
2023/04/27 08:40:08;;;;;;;;;;;27.70;41.00;;;;;;5070032;28;19951;-86
2023/04/27 08:42:34;;;;;;;;;;;27.80;41.00;;;;;;5069886;28;19995;-87
2023/04/27 08:44:59;;;;;;;;;;;27.90;40.80;;;;;;5068225;28;19991;-87
2023/04/27 08:47:25;;;;;;;;;;;28.10;40.70;;;;;;5087644;28;19908;-87
2023/04/27 08:49:50;;;;;;;;;;;28.10;40.60;;;;;;5068838;28;19939;-87
2023/04/27 08:52:16;;;;;;;;;;;28.30;40.50;;;;;;5068885;28;19916;-86
2023/04/27 08:54:42;;;;;;;;;;;28.40;40.40;;;;;;5067598;28;19937;-87
2023/04/27 08:57:11;;;;;;;;;;;28.50;40.30;;;;;;5082696;28;20009;-86
2023/04/27 08:59:37;;;;;;;;;;;28.40;40.10;;;;;;5067572;28;20056;-86
2023/04/27 09:02:02;;;;;;;;;;;28.10;40.20;;;;;;5066447;28;19909;-86
2023/04/27 09:04:41;;;;;;;;;;;28.00;40.30;;;;;;5068719;28;19908;-87
2023/04/27 09:07:13;;;;;;;;;;;28.00;40.30;;;;;;5072536;28;19908;-86
2023/04/27 09:09:38;;;;;;;;;;;28.00;40.10;;;;;;5071409;28;19915;-86
2023/04/27 09:12:14;;;;;;;;;;;27.70;40.30;;;;;;5071864;28;20133;-87
2023/04/27 09:14:40;;;;;;;;;;;27.60;40.30;;;;;;5072628;28;19955;-87
2023/04/27 09:17:06;;;;;;;;;;;27.80;40.30;;;;;;5072998;28;19908;-86
2023/04/27 09:19:31;;;;;;;;;;;27.70;40.30;;;;;;5072912;28;20163;-87
2023/04/27 09:22:04;;;;;;;;;;;27.60;40.20;;;;;;5073060;28;20022;-86
2023/04/27 09:24:29;;;;;;;;;;;27.60;40.30;;;;;;5088884;28;19908;-86
2023/04/27 09:26:55;;;;;;;;;;;27.40;40.30;;;;;;5071497;28;20210;-86
2023/04/27 09:29:30;;;;;;;;;;;27.20;40.40;;;;;;5069088;28;20134;-86
2023/04/27 09:31:56;;;;;;;;;;;27.00;40.50;;;;;;5070228;28;19916;-86
2023/04/27 09:34:21;;;;;;;;;;;27.00;40.60;;;;;;5070887;28;20297;-87
2023/04/27 09:36:47;;;;;;;;;;;26.90;40.50;;;;;;5072861;28;19970;-87
2023/04/27 09:39:14;;;;;;;;;;;27.00;40.60;;;;;;5071449;28;19908;-86
2023/04/27 09:41:40;;;;;;;;;;;27.20;40.50;;;;;;5069822;28;20241;-86
2023/04/27 09:44:06;;;;;;;;;;;27.30;40.30;;;;;;5097679;28;19916;-87
2023/04/27 09:46:32;;;;;;;;;;;27.60;40.20;;;;;;5087464;28;19914;-86
2023/04/27 09:48:58;;;;;;;;;;;27.70;40.10;;;;;;5068602;28;20290;-86
2023/04/27 09:51:23;;;;;;;;;;;27.70;39.90;;;;;;5067544;28;19908;-86
2023/04/27 09:53:51;;;;;;;;;;;27.60;39.80;;;;;;5069325;28;20040;-87
2023/04/27 09:56:27;;;;;;;;;;;27.40;39.90;;;;;;5069539;28;19973;-86
2023/04/27 09:59:08;;;;;;;;;;;27.20;40.10;;;;;;5068796;28;19908;-87
2023/04/27 10:01:37;;;;;;;;;;;27.10;40.20;;;;;;5067988;28;20426;-87
2023/04/27 10:04:11;;;;;;;;;;;26.90;40.20;;;;;;5068180;28;20230;-87
2023/04/27 10:06:43;;;;;;;;;;;26.60;40.40;;;;;;5088566;28;19912;-87
2023/04/27 10:09:09;;;;;;;;;;;26.00;40.60;;;;;;5071082;28;19916;-86
2023/04/27 10:11:39;;;;;;;;;;;25.60;41.00;;;;;;5069987;28;20213;-86
2023/04/27 10:14:07;;;;;;;;;;;25.00;41.30;;;;;;5070525;28;19973;-87
2023/04/27 10:16:51;;;;;;;;;;;24.40;41.70;;;;;;5070090;28;19908;-88
2023/04/27 10:19:17;;;;;;;;;;;23.90;42.20;;;;;;5071751;28;19919;-85
2023/04/27 10:21:51;;;;;;;;;;;23.40;42.70;;;;;;5070402;28;19916;-85
2023/04/27 10:24:17;;;;;;;;;;;23.00;43.20;;;;;;5072603;28;19919;-85
2023/04/27 10:26:46;;;;;;;;;;;22.70;43.60;;;;;;5088773;28;19908;-85
2023/04/27 10:29:16;;;;;;;;;;;22.40;43.90;;;;;;5070471;28;19915;-84
2023/04/27 10:31:42;;;;;;;;;;;22.30;44.30;;;;;;5068525;28;20162;-85
2023/04/27 10:34:09;;;;;;;;;;;22.10;44.50;;;;;;5068935;28;20208;-86
2023/04/27 10:36:38;;;;;;;;;;;21.90;44.70;;;;;;5067506;28;20167;-85
2023/04/27 10:39:14;;;;;;;;;;;21.80;44.80;;;;;;5065294;28;20171;-85
2023/04/27 10:41:48;;;;;;;;;;;21.70;44.90;;;;;;5084555;28;19923;-86
2023/04/27 10:44:15;;;;;;;;;;;21.60;45.10;;;;;;5068395;28;19970;-86
2023/04/27 10:46:51;;;;;;;;;;;21.50;45.30;;;;;;5070513;28;19908;-85
2023/04/27 10:49:16;;;;;;;;;;;21.40;45.40;;;;;;5084827;28;19909;-85
2023/04/27 10:51:42;;;;;;;;;;;21.30;45.50;;;;;;5068314;28;20151;-85
2023/04/27 10:54:08;;;;;;;;;;;21.20;45.60;;;;;;5068028;28;19996;-85
2023/04/27 10:56:34;;;;;;;;;;;21.10;45.70;;;;;;5069288;28;20329;-85
2023/04/27 10:59:07;;;;;;;;;;;21.00;45.90;;;;;;5084221;28;19908;-85
2023/04/27 11:01:32;;;;;;;;;;;21.00;46.00;;;;;;5065965;28;20292;-85
2023/04/27 11:03:58;;;;;;;;;;;20.90;46.10;;;;;;5066090;28;19908;-85
2023/04/27 11:06:24;;;;;;;;;;;20.80;46.10;;;;;;5066359;28;19914;-85
2023/04/27 11:08:50;;;;;;;;;;;20.80;46.20;;;;;;5066269;28;20208;-85
2023/04/27 11:11:16;;;;;;;;;;;20.80;46.30;;;;;;5064832;28;20274;-85
2023/04/27 11:13:43;;;;;;;;;;;20.70;46.30;;;;;;5082981;28;19990;-85
2023/04/27 11:16:08;;;;;;;;;;;20.70;46.40;;;;;;5064032;28;19943;-85
2023/04/27 11:18:36;;;;;;;;;;;20.70;46.40;;;;;;5064102;28;19975;-84
2023/04/27 11:21:06;;;;;;;;;;;20.60;46.40;;;;;;5079572;28;19924;-85
2023/04/27 11:23:41;;;;;;;;;;;20.60;46.60;;;;;;5061367;28;19908;-85
2023/04/27 11:26:17;;;;;;;;;;;20.60;46.70;;;;;;5061547;28;19920;-85
2023/04/27 11:28:43;;;;;;;;;;;20.50;46.70;;;;;;5062578;28;20131;-85
2023/04/27 11:31:08;;;;;;;;;;;20.50;46.80;;;;;;5060942;28;20017;-85
2023/04/27 11:33:35;;;;;;;;;;;20.40;46.80;;;;;;5065955;28;20019;-85
2023/04/27 11:36:00;;;;;;;;;;;20.40;46.90;;;;;;5082754;28;19989;-85
2023/04/27 11:38:32;;;;;;;;;;;20.30;47.00;;;;;;5066030;28;20183;-85
2023/04/27 11:40:58;;;;;;;;;;;20.30;47.10;;;;;;5064741;28;19923;-85
2023/04/27 11:43:24;;;;;;;;;;;20.20;47.20;;;;;;5066259;28;20068;-85
2023/04/27 11:45:50;;;;;;;;;;;20.20;47.40;;;;;;5081374;28;19994;-85
2023/04/27 11:48:16;;;;;;;;;;;20.20;47.40;;;;;;5081857;28;20597;-86
2023/04/27 11:50:48;;;;;;;;;;;20.20;47.40;;;;;;5070793;28;19912;-86
2023/04/27 11:53:14;;;;;;;;;;;20.10;47.50;;;;;;5103274;28;19998;-86
2023/04/27 11:55:41;;;;;;;;;;;20.10;47.60;;;;;;5085472;28;19918;-85
2023/04/27 11:58:14;;;;;;;;;;;20.10;47.70;;;;;;5102861;28;20216;-85
2023/04/27 12:00:40;;;;;;;;;;;20.10;47.70;;;;;;5084256;28;19916;-85
2023/04/27 12:03:06;;;;;;;;;;;20.00;47.70;;;;;;5085051;28;19954;-85
2023/04/27 12:05:32;;;;;;;;;;;20.00;47.70;;;;;;5101997;28;19930;-85
2023/04/27 12:07:57;;;;;;;;;;;20.00;47.80;;;;;;5081803;28;20169;-85
2023/04/27 12:10:23;;;;;;;;;;;19.90;47.80;;;;;;5084239;28;19916;-85
2023/04/27 12:12:49;;;;;;;;;;;19.90;47.70;;;;;;5084544;28;20000;-85
2023/04/27 12:15:15;;;;;;;;;;;19.80;47.60;;;;;;5083406;28;20185;-85
2023/04/27 12:17:40;;;;;;;;;;;19.80;47.80;;;;;;5084597;28;19914;-85
2023/04/27 12:20:06;;;;;;;;;;;19.80;47.90;;;;;;5084855;28;19916;-85
2023/04/27 12:22:32;;;;;;;;;;;19.70;47.90;;;;;;5082462;28;19908;-86
2023/04/27 12:24:59;;;;;;;;;;;19.70;48.00;;;;;;5084326;28;20027;-86
2023/04/27 12:27:25;;;;;;;;;;;19.70;48.00;;;;;;5085820;28;20193;-86
2023/04/27 12:29:53;;;;;;;;;;;19.70;48.10;;;;;;5103566;28;19919;-85
2023/04/27 12:32:18;;;;;;;;;;;19.60;48.10;;;;;;5083659;28;20231;-85
2023/04/27 12:34:45;;;;;;;;;;;19.60;48.20;;;;;;5103007;28;20316;-85
2023/04/27 12:37:10;;;;;;;;;;;19.60;48.20;;;;;;5084034;28;20070;-85
2023/04/27 12:39:36;;;;;;;;;;;19.60;48.30;;;;;;5087819;28;20205;-86
2023/04/27 12:42:02;;;;;;;;;;;19.60;48.30;;;;;;5088546;28;19908;-86
2023/04/27 12:44:28;;;;;;;;;;;19.60;48.30;;;;;;5091376;28;19922;-85
2023/04/27 12:46:53;;;;;;;;;;;19.60;48.40;;;;;;5106953;28;19908;-85
2023/04/27 12:49:19;;;;;;;;;;;19.60;48.50;;;;;;5090311;28;19908;-86
2023/04/27 12:51:46;;;;;;;;;;;19.50;48.50;;;;;;5089307;28;20178;-85
2023/04/27 12:54:12;;;;;;;;;;;19.50;48.50;;;;;;5088267;28;19923;-85
2023/04/27 12:56:37;;;;;;;;;;;19.50;48.50;;;;;;5107822;28;20147;-86
2023/04/27 12:59:04;;;;;;;;;;;19.50;48.60;;;;;;5089890;28;20008;-86
2023/04/27 13:01:30;;;;;;;;;;;19.50;48.60;;;;;;5088798;28;19908;-86
2023/04/27 13:04:00;;;;;;;;;;;19.50;48.50;;;;;;5089035;28;19919;-86
2023/04/27 13:06:26;;;;;;;;;;;19.50;48.60;;;;;;5106369;28;19919;-86
2023/04/27 13:08:51;;;;;;;;;;;19.60;48.70;;;;;;5088603;28;19955;-86
2023/04/27 13:11:17;;;;;;;;;;;19.60;48.70;;;;;;5089138;28;20212;-86
2023/04/27 13:13:43;;;;;;;;;;;19.60;48.70;;;;;;5086654;28;20163;-86
2023/04/27 13:16:10;;;;;;;;;;;19.60;48.40;;;;;;5086514;28;19944;-86
2023/04/27 13:18:36;;;;;;;;;;;19.60;48.60;;;;;;5087504;28;19908;-85
2023/04/27 13:21:04;;;;;;;;;;;19.60;48.80;;;;;;5088725;28;19927;-85
2023/04/27 13:23:30;;;;;;;;;;;19.60;48.40;;;;;;5094267;28;19907;-85
2023/04/27 13:25:56;;;;;;;;;;;19.50;48.60;;;;;;5092813;28;19935;-86
2023/04/27 13:28:21;;;;;;;;;;;19.50;48.60;;;;;;5090203;28;19908;-86
2023/04/27 13:30:47;;;;;;;;;;;19.50;48.30;;;;;;5088015;28;20152;-85
2023/04/27 13:33:13;;;;;;;;;;;19.50;48.30;;;;;;5087404;28;19908;-86
2023/04/27 13:35:41;;;;;;;;;;;19.50;48.50;;;;;;5089505;28;19920;-85
2023/04/27 13:38:07;;;;;;;;;;;19.50;48.50;;;;;;5088444;28;20075;-85
2023/04/27 13:40:32;;;;;;;;;;;19.40;48.20;;;;;;5084789;28;19915;-86
2023/04/27 13:42:58;;;;;;;;;;;19.40;48.40;;;;;;5104467;28;20109;-86
2023/04/27 13:45:23;;;;;;;;;;;19.50;48.50;;;;;;5104276;28;20204;-85
2023/04/27 13:47:49;;;;;;;;;;;19.40;48.60;;;;;;5087253;28;19912;-85
2023/04/27 13:50:14;;;;;;;;;;;19.40;48.60;;;;;;5085839;28;20316;-85
2023/04/27 13:52:40;;;;;;;;;;;19.40;48.30;;;;;;5084906;28;19934;-85
2023/04/27 13:55:07;;;;;;;;;;;19.40;48.30;;;;;;5085476;28;19976;-85
2023/04/27 13:57:33;;;;;;;;;;;19.40;48.30;;;;;;5088188;28;19907;-86
2023/04/27 14:00:01;;;;;;;;;;;19.40;48.30;;;;;;5086465;28;20071;-85
2023/04/27 14:02:28;;;;;;;;;;;19.40;48.50;;;;;;5085152;28;19943;-85
2023/04/27 14:04:54;;;;;;;;;;;19.30;48.30;;;;;;5086428;28;20189;-85
2023/04/27 14:07:19;;;;;;;;;;;19.30;48.50;;;;;;5087933;28;20136;-86
2023/04/27 14:09:46;;;;;;;;;;;19.30;48.70;;;;;;5087284;28;19908;-85
2023/04/27 14:12:12;;;;;;;;;;;19.30;48.80;;;;;;5085269;28;20089;-85